• Join FlightAware (Why Join?)
  • Login
  • US Flag 
04:40AM EDT


 

Airport Tracker/Info


-or-


 

Live Flight TrackerFlight Track Log ✈ N859JG ✈ 23-Sep-2013 ✈ KMTN - KMJX

Flight Track Log - Related Links

Times and Time Zones

All times are in EDT time to prevent confusion due to time zone crossing. See the N859JG flight status page for this flight to view local times or setup timezone preferences in your user account.

Time Position Orientation Groundspeed Altitude Reporting Facility
EDT Latitude Longitude Course Direction KTS MPH feet Rate Location/Type
09:23AM 39.3167 -76.4333 69° East 133 153 1,400  Level Potomac TRACON
09:24AM 39.2667 -76.4333 180° South 174 200 1,900 360 Climbing Potomac TRACON
09:25AM 39.2167 -76.4167 166° South 196 226 2,200 720 Climbing Potomac TRACON
09:26AM 39.2167 -76.3500 90° East 151 174 3,400 1,080 Climbing Potomac TRACON
09:27AM 39.2167 -76.3000 90° East 141 162 4,400 840 Climbing Potomac TRACON
09:28AM 39.4111 -76.1229 69° East  Level Estimated
09:28AM 39.2167 -76.2500 90° East 152 175 5,000  Level Potomac TRACON
09:29AM 39.2333 -76.2000 67° East 185 213 5,000 -60 Level Potomac TRACON
09:30AM 39.2500 -76.1667 57° Northeast 176 203 4,900  Descending Potomac TRACON
09:32AM 39.3333 -76.0500 47° Northeast 182 209 5,000  Climbing Philadelphia TRACON
09:33AM 39.3667 -76.0000 49° Northeast 182 209 5,000  Level Philadelphia TRACON
09:34AM 39.4000 -75.9500 49° Northeast 188 216 5,000  Level Philadelphia TRACON
09:35AM 39.4167 -75.8833 72° East 184 212 5,000  Level Philadelphia TRACON
09:36AM 39.4500 -75.8167 57° Northeast 188 216 5,000  Level Philadelphia TRACON
09:37AM 39.4667 -75.7667 67° East 185 213 5,000  Level Philadelphia TRACON
09:38AM 39.5000 -75.7000 57° Northeast 187 215 5,000  Level Philadelphia TRACON
09:39AM 39.5167 -75.6333 72° East 185 213 5,000  Level Philadelphia TRACON
09:40AM 39.5333 -75.5833 67° East 184 212 5,000  Level Philadelphia TRACON
09:41AM 39.5667 -75.5167 57° Northeast 185 213 5,000  Level Philadelphia TRACON
09:42AM 39.5833 -75.4500 72° East 186 214 5,000  Level Philadelphia TRACON
09:43AM 39.6000 -75.4000 67° East 186 214 5,000  Level Philadelphia TRACON
09:44AM 39.6333 -75.3333 57° Northeast 185 213 5,000  Level Philadelphia TRACON
09:45AM 39.6500 -75.2667 72° East 185 213 5,000  Level Philadelphia TRACON
09:46AM 39.6667 -75.2167 67° East 187 215 5,000  Level Philadelphia TRACON
09:47AM 39.6833 -75.1667 67° East 186 214 5,000  Level Philadelphia TRACON
09:48AM 39.7167 -75.1000 57° Northeast 187 215 5,000  Level Philadelphia TRACON
09:50AM 39.7354 -75.0252 72° East  Level FlightAware Approximate
09:57AM 39.7895 -74.6573 79° East  Level FlightAware Approximate
09:58AM 39.7970 -74.6045 79° East  Level FlightAware Approximate
09:59AM 39.8000 -74.5512 90° East  Level FlightAware Approximate
10:00AM 39.8000 -74.4975 90° East  Level FlightAware Approximate
10:01AM 39.8026 -74.4448 57° Northeast  Level FlightAware Approximate
10:02AM 39.8251 -74.3998 57° Northeast  Level FlightAware Approximate
10:03AM 39.8540 -74.3626 38° Northeast  Level FlightAware Approximate
10:04AM 39.8844 -74.3264 46° Northeast  Level FlightAware Approximate
10:05AM 39.9132 -74.2880 46° Northeast  Level FlightAware Approximate
10:06AM 39.9167 -74.2833 46° Northeast  Level FlightAware Approximate
10:07AM 39.9275 -74.2924 46° Northeast  Level Estimated
10:08AM 39.9275 -74.2924 46° Northeast  Level Estimated
10:09AM 39.9275 -74.2924 46° Northeast  Level Estimated